sensor_id;sensor_type;location;lat;lon;timestamp;P1;durP1;ratioP1;P2;durP2;ratioP2
12474;SDS011;6302;42.624;23.334;2023-10-31T00:00:00;6.00;;;3.20;;
12474;SDS011;6302;42.624;23.334;2023-10-31T00:02:29;4.27;;;3.43;;
12474;SDS011;6302;42.624;23.334;2023-10-31T00:04:58;4.97;;;3.23;;
12474;SDS011;6302;42.624;23.334;2023-10-31T00:07:24;7.10;;;3.50;;
12474;SDS011;6302;42.624;23.334;2023-10-31T00:09:51;3.67;;;3.33;;
12474;SDS011;6302;42.624;23.334;2023-10-31T00:12:18;8.13;;;3.27;;
12474;SDS011;6302;42.624;23.334;2023-10-31T00:14:45;6.20;;;3.33;;
12474;SDS011;6302;42.624;23.334;2023-10-31T00:17:11;6.53;;;3.60;;
12474;SDS011;6302;42.624;23.334;2023-10-31T00:19:38;5.70;;;3.60;;
12474;SDS011;6302;42.624;23.334;2023-10-31T00:22:06;4.73;;;3.43;;
12474;SDS011;6302;42.624;23.334;2023-10-31T00:24:33;3.93;;;3.23;;
12474;SDS011;6302;42.624;23.334;2023-10-31T00:27:00;9.57;;;3.63;;
12474;SDS011;6302;42.624;23.334;2023-10-31T00:29:26;7.93;;;3.57;;
12474;SDS011;6302;42.624;23.334;2023-10-31T00:31:53;6.47;;;3.30;;
12474;SDS011;6302;42.624;23.334;2023-10-31T00:34:20;4.50;;;3.03;;
12474;SDS011;6302;42.624;23.334;2023-10-31T00:36:47;4.43;;;3.40;;
12474;SDS011;6302;42.624;23.334;2023-10-31T00:39:15;3.43;;;3.13;;
12474;SDS011;6302;42.624;23.334;2023-10-31T00:41:43;4.87;;;3.37;;
12474;SDS011;6302;42.624;23.334;2023-10-31T00:44:11;4.73;;;4.20;;
12474;SDS011;6302;42.624;23.334;2023-10-31T00:46:38;8.07;;;4.33;;
12474;SDS011;6302;42.624;23.334;2023-10-31T00:49:05;5.43;;;3.80;;
12474;SDS011;6302;42.624;23.334;2023-10-31T00:51:32;5.70;;;4.00;;
12474;SDS011;6302;42.624;23.334;2023-10-31T00:53:58;6.03;;;4.13;;
12474;SDS011;6302;42.624;23.334;2023-10-31T00:56:27;5.37;;;3.57;;
12474;SDS011;6302;42.624;23.334;2023-10-31T00:58:53;5.70;;;4.53;;
12474;SDS011;6302;42.624;23.334;2023-10-31T01:01:19;7.73;;;4.30;;
12474;SDS011;6302;42.624;23.334;2023-10-31T01:03:46;5.73;;;3.50;;
12474;SDS011;6302;42.624;23.334;2023-10-31T01:06:13;8.50;;;4.63;;
12474;SDS011;6302;42.624;23.334;2023-10-31T01:08:39;4.10;;;3.40;;
12474;SDS011;6302;42.624;23.334;2023-10-31T01:11:06;4.83;;;3.33;;
12474;SDS011;6302;42.624;23.334;2023-10-31T01:13:34;5.30;;;3.83;;
12474;SDS011;6302;42.624;23.334;2023-10-31T01:16:01;6.73;;;3.63;;
12474;SDS011;6302;42.624;23.334;2023-10-31T01:18:28;7.07;;;3.60;;
12474;SDS011;6302;42.624;23.334;2023-10-31T01:20:55;5.77;;;3.87;;
12474;SDS011;6302;42.624;23.334;2023-10-31T01:23:22;4.00;;;3.37;;
12474;SDS011;6302;42.624;23.334;2023-10-31T01:25:49;4.93;;;3.43;;
12474;SDS011;6302;42.624;23.334;2023-10-31T01:28:15;5.80;;;3.80;;
12474;SDS011;6302;42.624;23.334;2023-10-31T01:30:44;5.40;;;3.50;;
12474;SDS011;6302;42.624;23.334;2023-10-31T01:33:10;4.33;;;3.57;;
12474;SDS011;6302;42.624;23.334;2023-10-31T01:35:37;6.00;;;3.47;;
12474;SDS011;6302;42.624;23.334;2023-10-31T01:38:04;5.33;;;4.10;;
12474;SDS011;6302;42.624;23.334;2023-10-31T01:40:31;7.03;;;4.13;;
12474;SDS011;6302;42.624;23.334;2023-10-31T01:42:57;7.67;;;4.67;;
12474;SDS011;6302;42.624;23.334;2023-10-31T01:45:24;6.97;;;4.40;;
12474;SDS011;6302;42.624;23.334;2023-10-31T01:47:52;5.83;;;4.23;;
12474;SDS011;6302;42.624;23.334;2023-10-31T01:50:19;7.70;;;5.07;;
12474;SDS011;6302;42.624;23.334;2023-10-31T01:52:46;8.33;;;5.17;;
12474;SDS011;6302;42.624;23.334;2023-10-31T01:55:13;7.20;;;4.30;;
12474;SDS011;6302;42.624;23.334;2023-10-31T01:57:41;5.57;;;5.00;;
12474;SDS011;6302;42.624;23.334;2023-10-31T02:00:11;4.47;;;4.03;;
12474;SDS011;6302;42.624;23.334;2023-10-31T02:02:40;8.20;;;4.20;;
12474;SDS011;6302;42.624;23.334;2023-10-31T02:05:09;5.47;;;4.23;;
12474;SDS011;6302;42.624;23.334;2023-10-31T02:07:36;6.47;;;4.60;;
12474;SDS011;6302;42.624;23.334;2023-10-31T02:10:03;4.50;;;4.10;;
12474;SDS011;6302;42.624;23.334;2023-10-31T02:12:31;6.27;;;3.83;;
12474;SDS011;6302;42.624;23.334;2023-10-31T02:14:58;6.90;;;4.23;;
12474;SDS011;6302;42.624;23.334;2023-10-31T02:17:25;5.80;;;4.57;;
12474;SDS011;6302;42.624;23.334;2023-10-31T02:19:52;7.57;;;4.47;;
12474;SDS011;6302;42.624;23.334;2023-10-31T02:22:20;5.47;;;4.40;;
12474;SDS011;6302;42.624;23.334;2023-10-31T02:24:47;8.33;;;5.57;;
12474;SDS011;6302;42.624;23.334;2023-10-31T02:27:14;5.77;;;5.13;;
12474;SDS011;6302;42.624;23.334;2023-10-31T02:29:40;6.63;;;5.50;;
12474;SDS011;6302;42.624;23.334;2023-10-31T02:32:07;6.87;;;4.77;;
12474;SDS011;6302;42.624;23.334;2023-10-31T02:34:34;6.83;;;5.17;;
12474;SDS011;6302;42.624;23.334;2023-10-31T02:37:00;7.00;;;5.00;;
12474;SDS011;6302;42.624;23.334;2023-10-31T02:39:29;7.20;;;5.33;;
12474;SDS011;6302;42.624;23.334;2023-10-31T02:41:57;7.17;;;5.30;;
12474;SDS011;6302;42.624;23.334;2023-10-31T02:44:24;7.67;;;5.40;;
12474;SDS011;6302;42.624;23.334;2023-10-31T02:46:51;8.60;;;5.70;;
12474;SDS011;6302;42.624;23.334;2023-10-31T02:49:17;6.67;;;5.27;;
12474;SDS011;6302;42.624;23.334;2023-10-31T02:51:44;8.50;;;5.50;;
12474;SDS011;6302;42.624;23.334;2023-10-31T02:54:11;7.40;;;5.47;;
12474;SDS011;6302;42.624;23.334;2023-10-31T02:56:39;6.93;;;6.03;;
12474;SDS011;6302;42.624;23.334;2023-10-31T02:59:06;6.37;;;5.77;;
12474;SDS011;6302;42.624;23.334;2023-10-31T03:01:32;8.60;;;5.57;;
12474;SDS011;6302;42.624;23.334;2023-10-31T03:04:00;9.20;;;5.90;;
12474;SDS011;6302;42.624;23.334;2023-10-31T03:06:26;8.87;;;5.57;;
12474;SDS011;6302;42.624;23.334;2023-10-31T03:08:53;6.50;;;5.90;;
12474;SDS011;6302;42.624;23.334;2023-10-31T03:11:20;8.13;;;6.30;;
12474;SDS011;6302;42.624;23.334;2023-10-31T03:13:49;7.33;;;6.47;;
12474;SDS011;6302;42.624;23.334;2023-10-31T03:16:16;6.53;;;5.80;;
12474;SDS011;6302;42.624;23.334;2023-10-31T03:18:43;8.07;;;6.37;;
12474;SDS011;6302;42.624;23.334;2023-10-31T03:21:10;9.47;;;7.10;;
12474;SDS011;6302;42.624;23.334;2023-10-31T03:23:36;9.93;;;6.60;;
12474;SDS011;6302;42.624;23.334;2023-10-31T03:26:03;6.93;;;6.10;;
12474;SDS011;6302;42.624;23.334;2023-10-31T03:28:30;6.83;;;6.13;;
12474;SDS011;6302;42.624;23.334;2023-10-31T03:30:58;9.50;;;6.30;;
12474;SDS011;6302;42.624;23.334;2023-10-31T03:33:25;9.57;;;6.43;;
12474;SDS011;6302;42.624;23.334;2023-10-31T03:35:52;8.60;;;5.50;;
12474;SDS011;6302;42.624;23.334;2023-10-31T03:38:18;7.43;;;5.53;;
12474;SDS011;6302;42.624;23.334;2023-10-31T03:40:45;9.77;;;5.83;;
12474;SDS011;6302;42.624;23.334;2023-10-31T03:43:11;8.40;;;5.87;;
12474;SDS011;6302;42.624;23.334;2023-10-31T03:45:38;9.90;;;5.57;;
12474;SDS011;6302;42.624;23.334;2023-10-31T03:48:06;7.83;;;6.07;;
12474;SDS011;6302;42.624;23.334;2023-10-31T03:50:33;6.87;;;5.70;;
12474;SDS011;6302;42.624;23.334;2023-10-31T03:52:59;7.27;;;5.87;;
12474;SDS011;6302;42.624;23.334;2023-10-31T03:55:26;8.60;;;5.90;;
12474;SDS011;6302;42.624;23.334;2023-10-31T03:57:53;7.07;;;6.27;;
12474;SDS011;6302;42.624;23.334;2023-10-31T04:00:20;6.17;;;5.40;;
12474;SDS011;6302;42.624;23.334;2023-10-31T04:02:46;7.43;;;5.80;;
12474;SDS011;6302;42.624;23.334;2023-10-31T04:05:15;8.27;;;5.43;;
12474;SDS011;6302;42.624;23.334;2023-10-31T04:07:42;6.47;;;5.37;;
12474;SDS011;6302;42.624;23.334;2023-10-31T04:10:09;9.10;;;6.80;;
12474;SDS011;6302;42.624;23.334;2023-10-31T04:12:36;11.50;;;8.30;;
12474;SDS011;6302;42.624;23.334;2023-10-31T04:15:03;12.70;;;7.03;;
12474;SDS011;6302;42.624;23.334;2023-10-31T04:17:30;27.80;;;10.67;;
12474;SDS011;6302;42.624;23.334;2023-10-31T04:19:57;14.40;;;9.17;;
12474;SDS011;6302;42.624;23.334;2023-10-31T04:22:25;9.50;;;7.03;;
12474;SDS011;6302;42.624;23.334;2023-10-31T04:24:52;11.33;;;7.03;;
12474;SDS011;6302;42.624;23.334;2023-10-31T04:27:19;8.23;;;6.27;;
12474;SDS011;6302;42.624;23.334;2023-10-31T04:29:46;10.77;;;7.33;;
12474;SDS011;6302;42.624;23.334;2023-10-31T04:32:13;10.33;;;6.47;;
12474;SDS011;6302;42.624;23.334;2023-10-31T04:34:39;8.30;;;6.33;;
12474;SDS011;6302;42.624;23.334;2023-10-31T04:37:06;11.47;;;7.87;;
12474;SDS011;6302;42.624;23.334;2023-10-31T04:39:34;12.20;;;7.77;;
12474;SDS011;6302;42.624;23.334;2023-10-31T04:42:01;17.27;;;10.70;;
12474;SDS011;6302;42.624;23.334;2023-10-31T04:44:28;13.33;;;8.30;;
12474;SDS011;6302;42.624;23.334;2023-10-31T04:46:55;11.80;;;7.83;;
12474;SDS011;6302;42.624;23.334;2023-10-31T04:49:22;14.23;;;8.37;;
12474;SDS011;6302;42.624;23.334;2023-10-31T04:51:48;15.00;;;8.47;;
12474;SDS011;6302;42.624;23.334;2023-10-31T04:54:15;17.63;;;8.23;;
12474;SDS011;6302;42.624;23.334;2023-10-31T04:56:43;12.10;;;7.87;;
12474;SDS011;6302;42.624;23.334;2023-10-31T04:59:10;12.17;;;7.33;;
12474;SDS011;6302;42.624;23.334;2023-10-31T05:01:37;12.60;;;6.10;;
12474;SDS011;6302;42.624;23.334;2023-10-31T05:04:04;11.43;;;7.10;;
12474;SDS011;6302;42.624;23.334;2023-10-31T05:06:31;11.33;;;6.77;;
12474;SDS011;6302;42.624;23.334;2023-10-31T05:08:57;9.43;;;6.80;;
12474;SDS011;6302;42.624;23.334;2023-10-31T05:11:24;10.70;;;7.43;;
12474;SDS011;6302;42.624;23.334;2023-10-31T05:13:53;10.93;;;8.73;;
12474;SDS011;6302;42.624;23.334;2023-10-31T05:16:19;12.77;;;8.87;;
12474;SDS011;6302;42.624;23.334;2023-10-31T05:18:46;14.70;;;8.67;;
12474;SDS011;6302;42.624;23.334;2023-10-31T05:21:18;11.37;;;8.47;;
12474;SDS011;6302;42.624;23.334;2023-10-31T05:23:45;11.63;;;8.10;;
12474;SDS011;6302;42.624;23.334;2023-10-31T05:26:12;12.93;;;8.30;;
12474;SDS011;6302;42.624;23.334;2023-10-31T05:28:39;19.67;;;12.47;;
12474;SDS011;6302;42.624;23.334;2023-10-31T05:31:07;15.57;;;9.20;;
12474;SDS011;6302;42.624;23.334;2023-10-31T05:33:34;13.73;;;8.53;;
12474;SDS011;6302;42.624;23.334;2023-10-31T05:36:01;15.90;;;8.50;;
12474;SDS011;6302;42.624;23.334;2023-10-31T05:38:28;9.10;;;8.13;;
12474;SDS011;6302;42.624;23.334;2023-10-31T05:40:54;12.27;;;7.50;;
12474;SDS011;6302;42.624;23.334;2023-10-31T05:43:21;12.43;;;7.33;;
12474;SDS011;6302;42.624;23.334;2023-10-31T05:45:48;11.53;;;7.80;;
12474;SDS011;6302;42.624;23.334;2023-10-31T05:48:16;9.97;;;6.77;;
12474;SDS011;6302;42.624;23.334;2023-10-31T05:50:43;9.37;;;6.47;;
12474;SDS011;6302;42.624;23.334;2023-10-31T05:53:09;10.77;;;7.67;;
12474;SDS011;6302;42.624;23.334;2023-10-31T05:55:38;11.10;;;7.57;;
12474;SDS011;6302;42.624;23.334;2023-10-31T05:58:05;12.27;;;6.93;;
12474;SDS011;6302;42.624;23.334;2023-10-31T06:00:31;7.63;;;6.50;;
12474;SDS011;6302;42.624;23.334;2023-10-31T06:03:00;12.33;;;7.83;;
12474;SDS011;6302;42.624;23.334;2023-10-31T06:05:28;16.77;;;8.27;;
12474;SDS011;6302;42.624;23.334;2023-10-31T06:07:55;13.10;;;8.40;;
12474;SDS011;6302;42.624;23.334;2023-10-31T06:10:22;13.03;;;8.43;;
12474;SDS011;6302;42.624;23.334;2023-10-31T06:12:49;9.63;;;8.17;;
12474;SDS011;6302;42.624;23.334;2023-10-31T06:15:15;13.73;;;8.50;;
12474;SDS011;6302;42.624;23.334;2023-10-31T06:17:42;18.80;;;9.37;;
12474;SDS011;6302;42.624;23.334;2023-10-31T06:20:09;15.97;;;10.30;;
12474;SDS011;6302;42.624;23.334;2023-10-31T06:22:38;12.40;;;9.53;;
12474;SDS011;6302;42.624;23.334;2023-10-31T06:25:05;15.87;;;9.63;;
12474;SDS011;6302;42.624;23.334;2023-10-31T06:27:32;15.30;;;9.40;;
12474;SDS011;6302;42.624;23.334;2023-10-31T06:29:59;13.63;;;9.70;;
12474;SDS011;6302;42.624;23.334;2023-10-31T06:32:26;16.87;;;10.37;;
12474;SDS011;6302;42.624;23.334;2023-10-31T06:34:53;20.40;;;10.80;;
12474;SDS011;6302;42.624;23.334;2023-10-31T06:37:19;17.50;;;11.40;;
12474;SDS011;6302;42.624;23.334;2023-10-31T06:39:48;21.73;;;12.77;;
12474;SDS011;6302;42.624;23.334;2023-10-31T06:42:14;18.23;;;12.93;;
12474;SDS011;6302;42.624;23.334;2023-10-31T06:44:41;16.80;;;13.00;;
12474;SDS011;6302;42.624;23.334;2023-10-31T06:47:08;22.30;;;13.80;;
12474;SDS011;6302;42.624;23.334;2023-10-31T06:49:34;19.30;;;13.67;;
12474;SDS011;6302;42.624;23.334;2023-10-31T06:52:02;17.50;;;12.33;;
12474;SDS011;6302;42.624;23.334;2023-10-31T06:54:29;18.57;;;12.17;;
12474;SDS011;6302;42.624;23.334;2023-10-31T06:56:58;22.97;;;13.60;;
12474;SDS011;6302;42.624;23.334;2023-10-31T06:59:26;20.40;;;13.60;;
12474;SDS011;6302;42.624;23.334;2023-10-31T07:01:54;21.73;;;12.63;;
12474;SDS011;6302;42.624;23.334;2023-10-31T07:04:21;16.53;;;12.93;;
12474;SDS011;6302;42.624;23.334;2023-10-31T07:06:48;17.83;;;13.03;;
12474;SDS011;6302;42.624;23.334;2023-10-31T07:09:17;19.97;;;12.50;;
12474;SDS011;6302;42.624;23.334;2023-10-31T07:11:44;16.10;;;11.97;;
12474;SDS011;6302;42.624;23.334;2023-10-31T07:14:12;14.73;;;11.50;;
12474;SDS011;6302;42.624;23.334;2023-10-31T07:16:39;21.53;;;12.87;;
12474;SDS011;6302;42.624;23.334;2023-10-31T07:19:08;17.93;;;13.03;;
12474;SDS011;6302;42.624;23.334;2023-10-31T07:21:35;23.80;;;12.60;;
12474;SDS011;6302;42.624;23.334;2023-10-31T07:24:02;15.60;;;11.17;;
12474;SDS011;6302;42.624;23.334;2023-10-31T07:26:29;16.47;;;11.07;;
12474;SDS011;6302;42.624;23.334;2023-10-31T07:28:56;22.00;;;13.00;;
12474;SDS011;6302;42.624;23.334;2023-10-31T07:31:25;16.33;;;13.10;;
12474;SDS011;6302;42.624;23.334;2023-10-31T07:33:51;18.73;;;12.70;;
12474;SDS011;6302;42.624;23.334;2023-10-31T07:36:18;19.80;;;13.00;;
12474;SDS011;6302;42.624;23.334;2023-10-31T07:38:45;18.50;;;13.27;;
12474;SDS011;6302;42.624;23.334;2023-10-31T07:41:12;17.63;;;12.70;;
12474;SDS011;6302;42.624;23.334;2023-10-31T07:43:38;18.50;;;12.43;;
12474;SDS011;6302;42.624;23.334;2023-10-31T07:46:05;17.60;;;11.60;;
12474;SDS011;6302;42.624;23.334;2023-10-31T07:48:33;16.30;;;13.60;;
12474;SDS011;6302;42.624;23.334;2023-10-31T07:51:00;17.83;;;13.13;;
12474;SDS011;6302;42.624;23.334;2023-10-31T07:53:27;16.43;;;12.23;;
12474;SDS011;6302;42.624;23.334;2023-10-31T07:55:54;20.93;;;13.00;;
12474;SDS011;6302;42.624;23.334;2023-10-31T07:58:21;17.00;;;12.57;;
12474;SDS011;6302;42.624;23.334;2023-10-31T08:00:48;14.77;;;12.10;;
12474;SDS011;6302;42.624;23.334;2023-10-31T08:03:15;13.33;;;11.93;;
12474;SDS011;6302;42.624;23.334;2023-10-31T08:05:43;27.03;;;12.47;;
12474;SDS011;6302;42.624;23.334;2023-10-31T08:08:10;18.07;;;12.40;;
12474;SDS011;6302;42.624;23.334;2023-10-31T08:10:37;24.83;;;12.97;;
12474;SDS011;6302;42.624;23.334;2023-10-31T08:13:04;22.23;;;12.47;;
12474;SDS011;6302;42.624;23.334;2023-10-31T08:15:31;19.97;;;11.97;;
12474;SDS011;6302;42.624;23.334;2023-10-31T08:17:57;17.00;;;12.00;;
12474;SDS011;6302;42.624;23.334;2023-10-31T08:20:24;18.70;;;10.73;;
12474;SDS011;6302;42.624;23.334;2023-10-31T08:22:53;13.87;;;10.40;;
12474;SDS011;6302;42.624;23.334;2023-10-31T08:25:20;14.73;;;10.90;;
12474;SDS011;6302;42.624;23.334;2023-10-31T08:27:47;16.97;;;10.57;;
12474;SDS011;6302;42.624;23.334;2023-10-31T08:30:14;19.03;;;10.53;;
12474;SDS011;6302;42.624;23.334;2023-10-31T08:32:41;15.77;;;10.13;;
12474;SDS011;6302;42.624;23.334;2023-10-31T08:35:08;16.93;;;9.53;;
12474;SDS011;6302;42.624;23.334;2023-10-31T08:37:35;12.03;;;9.57;;
12474;SDS011;6302;42.624;23.334;2023-10-31T08:40:04;15.93;;;8.90;;
12474;SDS011;6302;42.624;23.334;2023-10-31T08:42:32;15.97;;;9.37;;
12474;SDS011;6302;42.624;23.334;2023-10-31T08:44:58;16.40;;;9.07;;
12474;SDS011;6302;42.624;23.334;2023-10-31T08:47:25;10.90;;;8.20;;
12474;SDS011;6302;42.624;23.334;2023-10-31T08:49:54;13.10;;;7.87;;
12474;SDS011;6302;42.624;23.334;2023-10-31T08:52:20;15.33;;;8.17;;
12474;SDS011;6302;42.624;23.334;2023-10-31T08:54:48;16.70;;;8.47;;
12474;SDS011;6302;42.624;23.334;2023-10-31T08:57:16;11.80;;;6.73;;
12474;SDS011;6302;42.624;23.334;2023-10-31T08:59:43;13.67;;;7.10;;
12474;SDS011;6302;42.624;23.334;2023-10-31T09:02:09;10.23;;;6.00;;
12474;SDS011;6302;42.624;23.334;2023-10-31T09:04:36;7.03;;;5.30;;
12474;SDS011;6302;42.624;23.334;2023-10-31T09:07:03;8.67;;;5.70;;
12474;SDS011;6302;42.624;23.334;2023-10-31T09:09:30;10.90;;;5.73;;
12474;SDS011;6302;42.624;23.334;2023-10-31T09:11:57;10.53;;;5.17;;
12474;SDS011;6302;42.624;23.334;2023-10-31T09:14:25;12.83;;;6.43;;
12474;SDS011;6302;42.624;23.334;2023-10-31T09:16:51;14.77;;;5.13;;
12474;SDS011;6302;42.624;23.334;2023-10-31T09:19:18;11.27;;;5.67;;
12474;SDS011;6302;42.624;23.334;2023-10-31T09:21:45;6.47;;;5.17;;
12474;SDS011;6302;42.624;23.334;2023-10-31T09:24:12;8.40;;;5.27;;
12474;SDS011;6302;42.624;23.334;2023-10-31T09:26:41;11.90;;;5.07;;
12474;SDS011;6302;42.624;23.334;2023-10-31T09:29:10;8.70;;;4.23;;
12474;SDS011;6302;42.624;23.334;2023-10-31T09:31:38;8.03;;;4.10;;
12474;SDS011;6302;42.624;23.334;2023-10-31T09:34:05;5.10;;;3.70;;
12474;SDS011;6302;42.624;23.334;2023-10-31T09:36:32;7.90;;;3.43;;
12474;SDS011;6302;42.624;23.334;2023-10-31T09:38:59;8.93;;;3.03;;
12474;SDS011;6302;42.624;23.334;2023-10-31T09:41:26;6.03;;;2.70;;
12474;SDS011;6302;42.624;23.334;2023-10-31T09:43:53;8.60;;;2.90;;
12474;SDS011;6302;42.624;23.334;2023-10-31T09:46:20;5.53;;;3.00;;
12474;SDS011;6302;42.624;23.334;2023-10-31T09:48:49;5.90;;;2.93;;
12474;SDS011;6302;42.624;23.334;2023-10-31T09:51:16;9.03;;;3.33;;
12474;SDS011;6302;42.624;23.334;2023-10-31T09:53:44;6.47;;;3.63;;
12474;SDS011;6302;42.624;23.334;2023-10-31T09:56:12;8.20;;;3.47;;
12474;SDS011;6302;42.624;23.334;2023-10-31T09:58:40;6.37;;;3.20;;
12474;SDS011;6302;42.624;23.334;2023-10-31T10:01:06;5.37;;;2.80;;
12474;SDS011;6302;42.624;23.334;2023-10-31T10:03:33;3.80;;;2.73;;
12474;SDS011;6302;42.624;23.334;2023-10-31T10:06:05;4.53;;;2.50;;
12474;SDS011;6302;42.624;23.334;2023-10-31T10:08:34;3.83;;;2.50;;
12474;SDS011;6302;42.624;23.334;2023-10-31T10:11:03;4.10;;;3.23;;
12474;SDS011;6302;42.624;23.334;2023-10-31T10:13:31;4.83;;;2.93;;
12474;SDS011;6302;42.624;23.334;2023-10-31T10:15:59;4.90;;;2.73;;
12474;SDS011;6302;42.624;23.334;2023-10-31T10:18:26;5.27;;;3.00;;
12474;SDS011;6302;42.624;23.334;2023-10-31T10:20:55;5.93;;;3.00;;
12474;SDS011;6302;42.624;23.334;2023-10-31T10:23:24;10.70;;;3.43;;
12474;SDS011;6302;42.624;23.334;2023-10-31T10:25:52;8.93;;;3.40;;
12474;SDS011;6302;42.624;23.334;2023-10-31T10:28:21;7.40;;;3.27;;
12474;SDS011;6302;42.624;23.334;2023-10-31T10:30:50;6.00;;;3.00;;
12474;SDS011;6302;42.624;23.334;2023-10-31T10:33:17;8.40;;;3.03;;
12474;SDS011;6302;42.624;23.334;2023-10-31T10:35:44;5.10;;;2.70;;
12474;SDS011;6302;42.624;23.334;2023-10-31T10:38:12;7.47;;;2.67;;
12474;SDS011;6302;42.624;23.334;2023-10-31T10:40:41;6.60;;;2.80;;
12474;SDS011;6302;42.624;23.334;2023-10-31T10:43:12;8.17;;;3.07;;
12474;SDS011;6302;42.624;23.334;2023-10-31T10:45:41;9.27;;;3.17;;
12474;SDS011;6302;42.624;23.334;2023-10-31T10:48:11;3.07;;;2.77;;
12474;SDS011;6302;42.624;23.334;2023-10-31T10:50:41;6.97;;;3.73;;
12474;SDS011;6302;42.624;23.334;2023-10-31T10:53:13;5.90;;;3.60;;
12474;SDS011;6302;42.624;23.334;2023-10-31T10:55:45;4.73;;;4.23;;
12474;SDS011;6302;42.624;23.334;2023-10-31T10:58:18;6.10;;;2.90;;
12474;SDS011;6302;42.624;23.334;2023-10-31T11:00:49;5.20;;;3.27;;
12474;SDS011;6302;42.624;23.334;2023-10-31T11:03:17;4.57;;;3.13;;
12474;SDS011;6302;42.624;23.334;2023-10-31T11:05:45;3.70;;;2.20;;
12474;SDS011;6302;42.624;23.334;2023-10-31T11:08:13;6.50;;;2.70;;
12474;SDS011;6302;42.624;23.334;2023-10-31T11:10:41;7.40;;;2.77;;
12474;SDS011;6302;42.624;23.334;2023-10-31T11:13:09;8.17;;;2.70;;
12474;SDS011;6302;42.624;23.334;2023-10-31T11:15:37;6.17;;;2.53;;
12474;SDS011;6302;42.624;23.334;2023-10-31T11:18:05;7.73;;;2.93;;
12474;SDS011;6302;42.624;23.334;2023-10-31T11:20:32;4.47;;;2.63;;
12474;SDS011;6302;42.624;23.334;2023-10-31T11:22:59;4.03;;;2.50;;
12474;SDS011;6302;42.624;23.334;2023-10-31T11:25:31;5.70;;;2.77;;
12474;SDS011;6302;42.624;23.334;2023-10-31T11:28:12;4.87;;;2.70;;
12474;SDS011;6302;42.624;23.334;2023-10-31T11:30:39;5.33;;;2.80;;
12474;SDS011;6302;42.624;23.334;2023-10-31T11:33:10;5.40;;;3.10;;
12474;SDS011;6302;42.624;23.334;2023-10-31T11:35:38;8.30;;;3.87;;
12474;SDS011;6302;42.624;23.334;2023-10-31T11:38:06;9.20;;;5.80;;
12474;SDS011;6302;42.624;23.334;2023-10-31T11:40:34;5.20;;;3.20;;
12474;SDS011;6302;42.624;23.334;2023-10-31T11:43:02;5.70;;;3.40;;
12474;SDS011;6302;42.624;23.334;2023-10-31T11:45:32;4.47;;;2.53;;
12474;SDS011;6302;42.624;23.334;2023-10-31T11:48:01;5.77;;;2.90;;
12474;SDS011;6302;42.624;23.334;2023-10-31T11:50:29;6.23;;;2.33;;
12474;SDS011;6302;42.624;23.334;2023-10-31T11:53:00;6.37;;;3.83;;
12474;SDS011;6302;42.624;23.334;2023-10-31T11:55:30;7.93;;;2.50;;
12474;SDS011;6302;42.624;23.334;2023-10-31T11:57:58;10.27;;;3.40;;
12474;SDS011;6302;42.624;23.334;2023-10-31T12:00:25;4.03;;;2.60;;
12474;SDS011;6302;42.624;23.334;2023-10-31T12:03:00;6.80;;;2.77;;
12474;SDS011;6302;42.624;23.334;2023-10-31T12:05:28;5.55;;;2.40;;
12474;SDS011;6302;42.624;23.334;2023-10-31T12:07:55;3.27;;;2.43;;
12474;SDS011;6302;42.624;23.334;2023-10-31T12:10:23;12.97;;;3.10;;
12474;SDS011;6302;42.624;23.334;2023-10-31T12:12:52;8.00;;;3.00;;
12474;SDS011;6302;42.624;23.334;2023-10-31T12:15:19;5.73;;;2.93;;
12474;SDS011;6302;42.624;23.334;2023-10-31T12:17:46;7.87;;;2.50;;
12474;SDS011;6302;42.624;23.334;2023-10-31T12:20:15;6.03;;;3.10;;
12474;SDS011;6302;42.624;23.334;2023-10-31T12:22:42;6.20;;;3.07;;
12474;SDS011;6302;42.624;23.334;2023-10-31T12:25:10;8.40;;;2.90;;
12474;SDS011;6302;42.624;23.334;2023-10-31T12:27:44;8.27;;;3.17;;
12474;SDS011;6302;42.624;23.334;2023-10-31T12:30:12;6.53;;;2.85;;
12474;SDS011;6302;42.624;23.334;2023-10-31T12:32:40;7.22;;;2.80;;
12474;SDS011;6302;42.624;23.334;2023-10-31T12:35:08;6.40;;;2.50;;
12474;SDS011;6302;42.624;23.334;2023-10-31T12:37:42;5.00;;;2.50;;
12474;SDS011;6302;42.624;23.334;2023-10-31T12:40:11;4.63;;;2.60;;
12474;SDS011;6302;42.624;23.334;2023-10-31T12:42:41;4.88;;;3.05;;
12474;SDS011;6302;42.624;23.334;2023-10-31T12:45:09;9.37;;;2.70;;
12474;SDS011;6302;42.624;23.334;2023-10-31T12:47:36;5.90;;;3.08;;
12474;SDS011;6302;42.624;23.334;2023-10-31T12:50:07;6.05;;;2.92;;
12474;SDS011;6302;42.624;23.334;2023-10-31T12:52:49;5.45;;;2.75;;
12474;SDS011;6302;42.624;23.334;2023-10-31T12:55:17;11.25;;;2.85;;
12474;SDS011;6302;42.624;23.334;2023-10-31T12:57:45;9.00;;;2.70;;
12474;SDS011;6302;42.624;23.334;2023-10-31T13:00:13;4.75;;;2.70;;
12474;SDS011;6302;42.624;23.334;2023-10-31T13:02:41;6.50;;;2.40;;
12474;SDS011;6302;42.624;23.334;2023-10-31T13:05:10;4.53;;;2.28;;
12474;SDS011;6302;42.624;23.334;2023-10-31T13:07:38;3.72;;;2.25;;
12474;SDS011;6302;42.624;23.334;2023-10-31T13:10:07;4.70;;;2.50;;
12474;SDS011;6302;42.624;23.334;2023-10-31T13:12:35;7.40;;;2.67;;
12474;SDS011;6302;42.624;23.334;2023-10-31T13:15:03;5.35;;;2.45;;
12474;SDS011;6302;42.624;23.334;2023-10-31T13:17:31;2.85;;;2.50;;
12474;SDS011;6302;42.624;23.334;2023-10-31T13:19:58;5.50;;;2.83;;
12474;SDS011;6302;42.624;23.334;2023-10-31T13:22:25;5.00;;;2.60;;
12474;SDS011;6302;42.624;23.334;2023-10-31T13:24:52;6.67;;;3.13;;
12474;SDS011;6302;42.624;23.334;2023-10-31T13:27:20;3.07;;;2.77;;
12474;SDS011;6302;42.624;23.334;2023-10-31T13:29:47;6.25;;;3.25;;
12474;SDS011;6302;42.624;23.334;2023-10-31T13:32:15;5.47;;;2.77;;
12474;SDS011;6302;42.624;23.334;2023-10-31T13:34:42;7.47;;;2.70;;
12474;SDS011;6302;42.624;23.334;2023-10-31T13:37:09;6.18;;;3.00;;
12474;SDS011;6302;42.624;23.334;2023-10-31T13:39:36;22.37;;;12.77;;
12474;SDS011;6302;42.624;23.334;2023-10-31T13:42:02;16.43;;;9.33;;
12474;SDS011;6302;42.624;23.334;2023-10-31T13:44:31;10.07;;;3.13;;
12474;SDS011;6302;42.624;23.334;2023-10-31T13:46:58;6.80;;;4.60;;
12474;SDS011;6302;42.624;23.334;2023-10-31T13:49:26;8.20;;;3.23;;
12474;SDS011;6302;42.624;23.334;2023-10-31T13:51:52;7.30;;;3.00;;
12474;SDS011;6302;42.624;23.334;2023-10-31T13:54:20;5.80;;;2.97;;
12474;SDS011;6302;42.624;23.334;2023-10-31T13:56:47;7.77;;;2.80;;
12474;SDS011;6302;42.624;23.334;2023-10-31T13:59:14;3.80;;;2.53;;
12474;SDS011;6302;42.624;23.334;2023-10-31T14:01:42;6.47;;;2.53;;
12474;SDS011;6302;42.624;23.334;2023-10-31T14:04:09;9.20;;;3.05;;
12474;SDS011;6302;42.624;23.334;2023-10-31T14:06:38;3.60;;;3.00;;
12474;SDS011;6302;42.624;23.334;2023-10-31T14:09:05;13.53;;;3.03;;
12474;SDS011;6302;42.624;23.334;2023-10-31T14:11:32;10.70;;;3.17;;
12474;SDS011;6302;42.624;23.334;2023-10-31T14:14:00;12.60;;;3.43;;
12474;SDS011;6302;42.624;23.334;2023-10-31T14:16:31;8.83;;;3.27;;
12474;SDS011;6302;42.624;23.334;2023-10-31T14:19:00;9.13;;;3.70;;
12474;SDS011;6302;42.624;23.334;2023-10-31T14:21:36;9.30;;;4.03;;
12474;SDS011;6302;42.624;23.334;2023-10-31T14:24:05;14.50;;;5.63;;
12474;SDS011;6302;42.624;23.334;2023-10-31T14:26:37;7.65;;;4.63;;
12474;SDS011;6302;42.624;23.334;2023-10-31T14:29:09;8.63;;;5.17;;
12474;SDS011;6302;42.624;23.334;2023-10-31T14:31:38;8.50;;;4.40;;
12474;SDS011;6302;42.624;23.334;2023-10-31T14:34:07;10.93;;;4.47;;
12474;SDS011;6302;42.624;23.334;2023-10-31T14:36:34;10.95;;;4.60;;
12474;SDS011;6302;42.624;23.334;2023-10-31T14:39:01;9.32;;;4.38;;
12474;SDS011;6302;42.624;23.334;2023-10-31T14:41:30;5.45;;;3.50;;